sensor_id;sensor_type;location;lat;lon;timestamp;temperature;humidity
429;DHT22;201;48.758;9.290;2023-02-24T00:01:56;9.20;17.10
429;DHT22;201;48.758;9.290;2023-02-24T00:04:27;9.30;17.30
429;DHT22;201;48.758;9.290;2023-02-24T00:06:53;9.30;17.70
429;DHT22;201;48.758;9.290;2023-02-24T00:09:23;9.30;17.10
429;DHT22;201;48.758;9.290;2023-02-24T00:12:08;9.40;16.80
429;DHT22;201;48.758;9.290;2023-02-24T00:14:36;9.40;16.50
429;DHT22;201;48.758;9.290;2023-02-24T00:17:03;9.30;16.30
429;DHT22;201;48.758;9.290;2023-02-24T00:19:30;9.20;16.80
429;DHT22;201;48.758;9.290;2023-02-24T00:21:57;9.30;16.80
429;DHT22;201;48.758;9.290;2023-02-24T00:24:24;9.30;16.70
429;DHT22;201;48.758;9.290;2023-02-24T00:26:54;9.30;16.70
429;DHT22;201;48.758;9.290;2023-02-24T00:29:21;9.30;16.60
429;DHT22;201;48.758;9.290;2023-02-24T00:31:50;9.30;16.70
429;DHT22;201;48.758;9.290;2023-02-24T00:34:23;9.30;16.70
429;DHT22;201;48.758;9.290;2023-02-24T00:36:49;9.20;16.70
429;DHT22;201;48.758;9.290;2023-02-24T00:39:14;9.20;16.80
429;DHT22;201;48.758;9.290;2023-02-24T00:41:42;9.20;17.10
429;DHT22;201;48.758;9.290;2023-02-24T00:44:10;9.10;16.90
429;DHT22;201;48.758;9.290;2023-02-24T00:46:42;9.10;17.30
429;DHT22;201;48.758;9.290;2023-02-24T00:49:13;9.10;17.80
429;DHT22;201;48.758;9.290;2023-02-24T00:51:42;9.10;17.90
429;DHT22;201;48.758;9.290;2023-02-24T00:54:08;9.00;18.10
429;DHT22;201;48.758;9.290;2023-02-24T00:56:39;9.00;18.10
429;DHT22;201;48.758;9.290;2023-02-24T00:59:05;9.00;18.20
429;DHT22;201;48.758;9.290;2023-02-24T01:01:32;9.00;18.20
429;DHT22;201;48.758;9.290;2023-02-24T01:03:59;9.00;18.30
429;DHT22;201;48.758;9.290;2023-02-24T01:06:27;8.90;18.10
429;DHT22;201;48.758;9.290;2023-02-24T01:08:54;8.90;18.10
429;DHT22;201;48.758;9.290;2023-02-24T01:11:23;8.90;18.90
429;DHT22;201;48.758;9.290;2023-02-24T01:14:10;8.90;18.80
429;DHT22;201;48.758;9.290;2023-02-24T01:16:36;8.90;18.70
429;DHT22;201;48.758;9.290;2023-02-24T01:19:03;8.80;18.90
429;DHT22;201;48.758;9.290;2023-02-24T01:21:30;8.80;19.10
429;DHT22;201;48.758;9.290;2023-02-24T01:23:55;8.80;19.30
429;DHT22;201;48.758;9.290;2023-02-24T01:26:21;8.80;19.50
429;DHT22;201;48.758;9.290;2023-02-24T01:28:47;8.80;19.90
429;DHT22;201;48.758;9.290;2023-02-24T01:31:14;8.90;19.80
429;DHT22;201;48.758;9.290;2023-02-24T01:33:42;8.80;20.10
429;DHT22;201;48.758;9.290;2023-02-24T01:36:15;8.80;20.10
429;DHT22;201;48.758;9.290;2023-02-24T01:38:41;8.80;20.20
429;DHT22;201;48.758;9.290;2023-02-24T01:41:12;8.80;20.30
429;DHT22;201;48.758;9.290;2023-02-24T01:46:28;8.80;20.20
429;DHT22;201;48.758;9.290;2023-02-24T01:48:57;8.80;19.90
429;DHT22;201;48.758;9.290;2023-02-24T01:51:25;8.80;19.80
429;DHT22;201;48.758;9.290;2023-02-24T01:53:53;8.80;19.90
429;DHT22;201;48.758;9.290;2023-02-24T01:56:19;8.80;19.90
429;DHT22;201;48.758;9.290;2023-02-24T01:58:45;8.70;20.10
429;DHT22;201;48.758;9.290;2023-02-24T02:01:14;8.80;20.10
429;DHT22;201;48.758;9.290;2023-02-24T02:03:41;8.70;19.90
429;DHT22;201;48.758;9.290;2023-02-24T02:06:09;8.70;20.00
429;DHT22;201;48.758;9.290;2023-02-24T02:08:38;8.70;20.20
429;DHT22;201;48.758;9.290;2023-02-24T02:11:10;8.70;20.30
429;DHT22;201;48.758;9.290;2023-02-24T02:13:40;8.70;20.30
429;DHT22;201;48.758;9.290;2023-02-24T02:16:22;8.60;20.40
429;DHT22;201;48.758;9.290;2023-02-24T02:19:08;8.60;20.80
429;DHT22;201;48.758;9.290;2023-02-24T02:22:00;8.70;21.10
429;DHT22;201;48.758;9.290;2023-02-24T02:27:19;8.60;20.70
429;DHT22;201;48.758;9.290;2023-02-24T02:35:08;8.50;21.10
429;DHT22;201;48.758;9.290;2023-02-24T02:37:54;8.40;20.90
429;DHT22;201;48.758;9.290;2023-02-24T02:40:27;8.30;21.40
429;DHT22;201;48.758;9.290;2023-02-24T02:43:16;8.30;21.80
429;DHT22;201;48.758;9.290;2023-02-24T02:45:51;8.20;22.20
429;DHT22;201;48.758;9.290;2023-02-24T02:48:30;8.40;22.20
429;DHT22;201;48.758;9.290;2023-02-24T02:51:08;8.40;21.80
429;DHT22;201;48.758;9.290;2023-02-24T02:53:40;8.40;21.70
429;DHT22;201;48.758;9.290;2023-02-24T02:56:35;8.40;21.60
429;DHT22;201;48.758;9.290;2023-02-24T02:58:59;8.40;21.40
429;DHT22;201;48.758;9.290;2023-02-24T03:01:34;8.40;21.70
429;DHT22;201;48.758;9.290;2023-02-24T03:04:03;8.50;21.90
429;DHT22;201;48.758;9.290;2023-02-24T03:06:33;8.50;21.80
429;DHT22;201;48.758;9.290;2023-02-24T03:09:07;8.50;21.70
429;DHT22;201;48.758;9.290;2023-02-24T03:11:38;8.50;21.40
429;DHT22;201;48.758;9.290;2023-02-24T03:14:04;8.60;21.00
429;DHT22;201;48.758;9.290;2023-02-24T03:16:31;8.60;20.90
429;DHT22;201;48.758;9.290;2023-02-24T03:19:01;8.50;20.60
429;DHT22;201;48.758;9.290;2023-02-24T03:21:39;8.40;21.00
429;DHT22;201;48.758;9.290;2023-02-24T03:24:06;8.30;21.40
429;DHT22;201;48.758;9.290;2023-02-24T03:26:49;8.40;21.80
429;DHT22;201;48.758;9.290;2023-02-24T03:29:43;8.40;21.80
429;DHT22;201;48.758;9.290;2023-02-24T03:32:20;8.50;21.30
429;DHT22;201;48.758;9.290;2023-02-24T03:35:11;8.60;20.90
429;DHT22;201;48.758;9.290;2023-02-24T03:37:38;8.60;20.50
429;DHT22;201;48.758;9.290;2023-02-24T03:40:10;8.60;20.10
429;DHT22;201;48.758;9.290;2023-02-24T03:42:41;8.60;20.30
429;DHT22;201;48.758;9.290;2023-02-24T03:45:08;8.50;20.50
429;DHT22;201;48.758;9.290;2023-02-24T03:47:34;8.60;20.80
429;DHT22;201;48.758;9.290;2023-02-24T03:50:00;8.70;20.60
429;DHT22;201;48.758;9.290;2023-02-24T03:52:54;8.70;20.20
429;DHT22;201;48.758;9.290;2023-02-24T04:03:30;8.80;19.90
429;DHT22;201;48.758;9.290;2023-02-24T04:08:23;9.00;19.30
429;DHT22;201;48.758;9.290;2023-02-24T04:11:01;9.00;18.80
429;DHT22;201;48.758;9.290;2023-02-24T04:13:32;9.00;18.10
429;DHT22;201;48.758;9.290;2023-02-24T04:16:16;9.00;18.10
429;DHT22;201;48.758;9.290;2023-02-24T04:18:55;9.00;18.20
429;DHT22;201;48.758;9.290;2023-02-24T04:21:24;8.90;18.10
429;DHT22;201;48.758;9.290;2023-02-24T04:23:51;8.90;18.10
429;DHT22;201;48.758;9.290;2023-02-24T04:26:18;8.80;18.00
429;DHT22;201;48.758;9.290;2023-02-24T04:28:45;8.80;18.00
429;DHT22;201;48.758;9.290;2023-02-24T04:31:13;8.80;18.00
429;DHT22;201;48.758;9.290;2023-02-24T04:33:42;8.70;17.90
429;DHT22;201;48.758;9.290;2023-02-24T04:36:08;8.50;18.50
429;DHT22;201;48.758;9.290;2023-02-24T04:38:37;8.50;19.60
429;DHT22;201;48.758;9.290;2023-02-24T04:41:03;8.50;19.30
429;DHT22;201;48.758;9.290;2023-02-24T04:43:29;8.40;20.10
429;DHT22;201;48.758;9.290;2023-02-24T04:45:55;8.30;20.40
429;DHT22;201;48.758;9.290;2023-02-24T04:48:20;8.40;20.60
429;DHT22;201;48.758;9.290;2023-02-24T04:50:46;8.40;20.60
429;DHT22;201;48.758;9.290;2023-02-24T04:53:19;8.30;20.60
429;DHT22;201;48.758;9.290;2023-02-24T04:55:51;8.30;20.70
429;DHT22;201;48.758;9.290;2023-02-24T04:58:19;8.30;20.70
429;DHT22;201;48.758;9.290;2023-02-24T05:00:47;8.30;20.80
429;DHT22;201;48.758;9.290;2023-02-24T05:03:14;8.30;21.20
429;DHT22;201;48.758;9.290;2023-02-24T05:05:50;8.30;21.10
429;DHT22;201;48.758;9.290;2023-02-24T05:08:17;8.30;21.40
429;DHT22;201;48.758;9.290;2023-02-24T05:10:45;8.30;20.80
429;DHT22;201;48.758;9.290;2023-02-24T05:13:17;8.30;20.60
429;DHT22;201;48.758;9.290;2023-02-24T05:15:44;8.30;21.00
429;DHT22;201;48.758;9.290;2023-02-24T05:18:12;8.30;20.90
429;DHT22;201;48.758;9.290;2023-02-24T05:20:41;8.30;20.80
429;DHT22;201;48.758;9.290;2023-02-24T05:23:36;8.30;20.80
429;DHT22;201;48.758;9.290;2023-02-24T05:26:04;8.10;20.80
429;DHT22;201;48.758;9.290;2023-02-24T05:28:37;8.10;21.60
429;DHT22;201;48.758;9.290;2023-02-24T05:31:10;8.30;21.80
429;DHT22;201;48.758;9.290;2023-02-24T05:33:37;8.30;21.20
429;DHT22;201;48.758;9.290;2023-02-24T05:36:08;8.30;21.00
429;DHT22;201;48.758;9.290;2023-02-24T05:38:35;8.30;21.00
429;DHT22;201;48.758;9.290;2023-02-24T05:41:10;8.40;20.80
429;DHT22;201;48.758;9.290;2023-02-24T05:43:49;8.40;20.70
429;DHT22;201;48.758;9.290;2023-02-24T05:46:24;8.50;20.60
429;DHT22;201;48.758;9.290;2023-02-24T05:48:53;8.50;20.20
429;DHT22;201;48.758;9.290;2023-02-24T05:51:22;8.60;19.80
429;DHT22;201;48.758;9.290;2023-02-24T05:53:49;8.50;19.50
429;DHT22;201;48.758;9.290;2023-02-24T05:56:23;8.40;19.40
429;DHT22;201;48.758;9.290;2023-02-24T05:58:49;8.40;19.60
429;DHT22;201;48.758;9.290;2023-02-24T06:01:28;8.40;20.00
429;DHT22;201;48.758;9.290;2023-02-24T06:03:55;8.30;20.00
429;DHT22;201;48.758;9.290;2023-02-24T06:06:20;8.30;19.70
429;DHT22;201;48.758;9.290;2023-02-24T06:08:47;8.20;20.10
429;DHT22;201;48.758;9.290;2023-02-24T06:11:19;8.20;20.40
429;DHT22;201;48.758;9.290;2023-02-24T06:13:45;8.20;20.90
429;DHT22;201;48.758;9.290;2023-02-24T06:16:16;8.20;20.50
429;DHT22;201;48.758;9.290;2023-02-24T06:18:42;8.10;20.60
429;DHT22;201;48.758;9.290;2023-02-24T06:21:11;8.20;20.70
429;DHT22;201;48.758;9.290;2023-02-24T06:23:38;8.30;20.40
429;DHT22;201;48.758;9.290;2023-02-24T06:26:04;8.30;20.20
429;DHT22;201;48.758;9.290;2023-02-24T06:28:30;8.10;20.20
429;DHT22;201;48.758;9.290;2023-02-24T06:30:56;8.10;20.60
429;DHT22;201;48.758;9.290;2023-02-24T06:33:22;8.10;20.70
429;DHT22;201;48.758;9.290;2023-02-24T06:35:50;8.20;21.00
429;DHT22;201;48.758;9.290;2023-02-24T06:38:17;8.30;20.70
429;DHT22;201;48.758;9.290;2023-02-24T06:40:43;8.20;20.30
429;DHT22;201;48.758;9.290;2023-02-24T06:43:08;8.10;20.50
429;DHT22;201;48.758;9.290;2023-02-24T06:45:35;8.00;20.60
429;DHT22;201;48.758;9.290;2023-02-24T06:48:01;8.00;21.00
429;DHT22;201;48.758;9.290;2023-02-24T06:50:27;8.00;21.10
429;DHT22;201;48.758;9.290;2023-02-24T06:52:56;7.90;21.40
429;DHT22;201;48.758;9.290;2023-02-24T06:55:25;7.90;21.50
429;DHT22;201;48.758;9.290;2023-02-24T06:57:53;7.90;21.50
429;DHT22;201;48.758;9.290;2023-02-24T07:00:23;7.90;21.70
429;DHT22;201;48.758;9.290;2023-02-24T07:02:52;8.00;21.70
429;DHT22;201;48.758;9.290;2023-02-24T07:05:17;8.00;21.60
429;DHT22;201;48.758;9.290;2023-02-24T07:07:43;8.10;21.80
429;DHT22;201;48.758;9.290;2023-02-24T07:10:13;8.30;21.60
429;DHT22;201;48.758;9.290;2023-02-24T07:12:38;8.40;21.00
429;DHT22;201;48.758;9.290;2023-02-24T07:15:06;8.50;20.50
429;DHT22;201;48.758;9.290;2023-02-24T07:17:32;8.40;20.10
429;DHT22;201;48.758;9.290;2023-02-24T07:19:57;8.40;20.20
429;DHT22;201;48.758;9.290;2023-02-24T07:22:30;8.30;20.20
429;DHT22;201;48.758;9.290;2023-02-24T07:24:56;8.30;20.10
429;DHT22;201;48.758;9.290;2023-02-24T07:27:24;8.40;19.80
429;DHT22;201;48.758;9.290;2023-02-24T07:29:52;8.50;19.60
429;DHT22;201;48.758;9.290;2023-02-24T07:32:18;8.60;19.30
429;DHT22;201;48.758;9.290;2023-02-24T07:34:46;8.50;19.30
429;DHT22;201;48.758;9.290;2023-02-24T07:37:12;8.50;19.30
429;DHT22;201;48.758;9.290;2023-02-24T07:39:38;8.50;19.30
429;DHT22;201;48.758;9.290;2023-02-24T07:42:05;8.40;19.30
429;DHT22;201;48.758;9.290;2023-02-24T07:44:31;8.40;19.50
429;DHT22;201;48.758;9.290;2023-02-24T07:46:57;8.40;19.40
429;DHT22;201;48.758;9.290;2023-02-24T07:49:24;8.50;19.50
429;DHT22;201;48.758;9.290;2023-02-24T07:51:51;8.40;19.40
429;DHT22;201;48.758;9.290;2023-02-24T07:54:20;8.50;19.20
429;DHT22;201;48.758;9.290;2023-02-24T07:56:48;8.60;18.60
429;DHT22;201;48.758;9.290;2023-02-24T07:59:22;8.60;18.10
429;DHT22;201;48.758;9.290;2023-02-24T08:01:47;8.60;18.60
429;DHT22;201;48.758;9.290;2023-02-24T08:04:29;8.70;17.90
429;DHT22;201;48.758;9.290;2023-02-24T08:06:57;8.60;17.90
429;DHT22;201;48.758;9.290;2023-02-24T08:09:28;8.50;18.30
429;DHT22;201;48.758;9.290;2023-02-24T08:12:21;8.40;18.50
429;DHT22;201;48.758;9.290;2023-02-24T08:14:49;8.30;19.10
429;DHT22;201;48.758;9.290;2023-02-24T08:17:19;8.40;19.60
429;DHT22;201;48.758;9.290;2023-02-24T08:19:46;8.40;19.50
429;DHT22;201;48.758;9.290;2023-02-24T08:22:14;8.40;19.60
429;DHT22;201;48.758;9.290;2023-02-24T08:24:56;8.50;19.20
429;DHT22;201;48.758;9.290;2023-02-24T08:27:26;8.60;18.90
429;DHT22;201;48.758;9.290;2023-02-24T08:29:55;8.60;19.10
429;DHT22;201;48.758;9.290;2023-02-24T08:32:36;8.60;19.00
429;DHT22;201;48.758;9.290;2023-02-24T08:35:05;8.60;19.00
429;DHT22;201;48.758;9.290;2023-02-24T08:37:32;8.70;19.20
429;DHT22;201;48.758;9.290;2023-02-24T08:40:11;8.70;19.20
429;DHT22;201;48.758;9.290;2023-02-24T08:43:08;8.80;18.80
429;DHT22;201;48.758;9.290;2023-02-24T08:45:42;8.90;18.40
429;DHT22;201;48.758;9.290;2023-02-24T08:48:12;9.00;18.10
429;DHT22;201;48.758;9.290;2023-02-24T08:50:46;9.10;18.20
429;DHT22;201;48.758;9.290;2023-02-24T08:53:12;9.30;18.40
429;DHT22;201;48.758;9.290;2023-02-24T08:55:44;9.40;18.00
429;DHT22;201;48.758;9.290;2023-02-24T08:58:09;9.50;17.40
429;DHT22;201;48.758;9.290;2023-02-24T09:00:42;9.60;17.20
429;DHT22;201;48.758;9.290;2023-02-24T09:03:20;9.70;16.70
429;DHT22;201;48.758;9.290;2023-02-24T09:06:04;9.70;16.30
429;DHT22;201;48.758;9.290;2023-02-24T09:08:32;9.90;16.30
429;DHT22;201;48.758;9.290;2023-02-24T09:10:59;10.10;14.50
429;DHT22;201;48.758;9.290;2023-02-24T09:13:25;10.50;13.90
429;DHT22;201;48.758;9.290;2023-02-24T09:15:58;10.70;12.30
429;DHT22;201;48.758;9.290;2023-02-24T09:18:24;10.70;10.00
429;DHT22;201;48.758;9.290;2023-02-24T09:20:55;10.80;10.10
429;DHT22;201;48.758;9.290;2023-02-24T09:23:21;10.90;9.20
429;DHT22;201;48.758;9.290;2023-02-24T09:25:54;10.70;8.50
429;DHT22;201;48.758;9.290;2023-02-24T09:28:22;10.60;9.30
429;DHT22;201;48.758;9.290;2023-02-24T09:30:49;10.70;8.90
429;DHT22;201;48.758;9.290;2023-02-24T09:33:20;10.70;8.90
429;DHT22;201;48.758;9.290;2023-02-24T09:38:36;10.70;8.30
429;DHT22;201;48.758;9.290;2023-02-24T09:41:40;10.50;8.30
429;DHT22;201;48.758;9.290;2023-02-24T09:44:24;10.30;9.70
429;DHT22;201;48.758;9.290;2023-02-24T09:49:43;10.30;10.30
429;DHT22;201;48.758;9.290;2023-02-24T09:52:17;10.40;10.10
429;DHT22;201;48.758;9.290;2023-02-24T09:54:49;10.70;10.00
429;DHT22;201;48.758;9.290;2023-02-24T09:57:41;10.80;9.80
429;DHT22;201;48.758;9.290;2023-02-24T10:00:29;10.70;8.70
429;DHT22;201;48.758;9.290;2023-02-24T10:03:35;10.80;8.00
429;DHT22;201;48.758;9.290;2023-02-24T10:06:15;10.60;8.90
429;DHT22;201;48.758;9.290;2023-02-24T10:08:58;10.20;9.40
429;DHT22;201;48.758;9.290;2023-02-24T10:11:39;10.00;10.50
429;DHT22;201;48.758;9.290;2023-02-24T10:14:19;9.90;11.50
429;DHT22;201;48.758;9.290;2023-02-24T10:16:46;10.00;10.90
429;DHT22;201;48.758;9.290;2023-02-24T10:19:33;10.10;10.30
429;DHT22;201;48.758;9.290;2023-02-24T10:24:48;10.30;9.70
429;DHT22;201;48.758;9.290;2023-02-24T10:27:33;10.60;8.70
429;DHT22;201;48.758;9.290;2023-02-24T10:30:06;10.50;7.40
429;DHT22;201;48.758;9.290;2023-02-24T10:35:17;10.30;9.10
429;DHT22;201;48.758;9.290;2023-02-24T10:37:43;10.40;9.60
429;DHT22;201;48.758;9.290;2023-02-24T10:40:10;10.60;8.80
429;DHT22;201;48.758;9.290;2023-02-24T10:42:39;10.80;7.30
429;DHT22;201;48.758;9.290;2023-02-24T10:45:24;11.00;5.60
429;DHT22;201;48.758;9.290;2023-02-24T10:47:53;11.10;5.20
429;DHT22;201;48.758;9.290;2023-02-24T10:50:47;11.10;5.00
429;DHT22;201;48.758;9.290;2023-02-24T10:53:17;10.80;5.30
429;DHT22;201;48.758;9.290;2023-02-24T10:55:54;10.40;5.50
429;DHT22;201;48.758;9.290;2023-02-24T10:58:41;10.20;6.30
429;DHT22;201;48.758;9.290;2023-02-24T11:01:26;9.90;8.10
429;DHT22;201;48.758;9.290;2023-02-24T11:04:11;9.90;7.80
429;DHT22;201;48.758;9.290;2023-02-24T11:06:47;9.70;7.50
429;DHT22;201;48.758;9.290;2023-02-24T11:09:23;9.60;7.50
429;DHT22;201;48.758;9.290;2023-02-24T11:11:53;9.60;8.80
429;DHT22;201;48.758;9.290;2023-02-24T11:14:53;9.60;9.00
429;DHT22;201;48.758;9.290;2023-02-24T11:17:47;9.60;9.00
429;DHT22;201;48.758;9.290;2023-02-24T11:20:34;9.70;9.20
429;DHT22;201;48.758;9.290;2023-02-24T11:23:02;9.80;8.90
429;DHT22;201;48.758;9.290;2023-02-24T11:25:40;10.00;7.70
429;DHT22;201;48.758;9.290;2023-02-24T11:34:10;9.80;7.30
429;DHT22;201;48.758;9.290;2023-02-24T11:36:57;9.80;8.50
429;DHT22;201;48.758;9.290;2023-02-24T11:42:14;9.60;9.10
429;DHT22;201;48.758;9.290;2023-02-24T11:47:37;9.80;8.50
429;DHT22;201;48.758;9.290;2023-02-24T11:52:43;9.40;9.90
429;DHT22;201;48.758;9.290;2023-02-24T11:55:33;9.40;9.90
429;DHT22;201;48.758;9.290;2023-02-24T11:58:13;9.40;9.90
429;DHT22;201;48.758;9.290;2023-02-24T12:00:51;9.50;9.90
429;DHT22;201;48.758;9.290;2023-02-24T12:03:35;9.50;9.50
429;DHT22;201;48.758;9.290;2023-02-24T12:06:12;9.50;10.00
429;DHT22;201;48.758;9.290;2023-02-24T12:08:44;9.70;9.60
429;DHT22;201;48.758;9.290;2023-02-24T12:11:35;9.70;9.10
429;DHT22;201;48.758;9.290;2023-02-24T12:14:21;9.80;9.00
429;DHT22;201;48.758;9.290;2023-02-24T12:16:55;9.90;8.00
429;DHT22;201;48.758;9.290;2023-02-24T12:19:36;10.20;6.90
429;DHT22;201;48.758;9.290;2023-02-24T12:22:13;10.40;5.70
429;DHT22;201;48.758;9.290;2023-02-24T12:24:43;10.60;4.50
429;DHT22;201;48.758;9.290;2023-02-24T12:27:14;10.90;4.00
429;DHT22;201;48.758;9.290;2023-02-24T12:30:02;11.20;3.90
429;DHT22;201;48.758;9.290;2023-02-24T12:32:45;11.30;1.70
429;DHT22;201;48.758;9.290;2023-02-24T12:35:43;11.30;1.70
429;DHT22;201;48.758;9.290;2023-02-24T12:43:35;12.40;1.00
429;DHT22;201;48.758;9.290;2023-02-24T12:48:51;12.90;1.00
429;DHT22;201;48.758;9.290;2023-02-24T12:59:35;13.20;1.00
429;DHT22;201;48.758;9.290;2023-02-24T13:02:12;12.80;1.00
429;DHT22;201;48.758;9.290;2023-02-24T13:05:21;12.50;1.00
429;DHT22;201;48.758;9.290;2023-02-24T13:15:58;11.80;1.00
429;DHT22;201;48.758;9.290;2023-02-24T13:18:28;11.80;1.00
429;DHT22;201;48.758;9.290;2023-02-24T13:23:31;11.90;1.00
429;DHT22;201;48.758;9.290;2023-02-24T13:25:57;11.80;1.00
429;DHT22;201;48.758;9.290;2023-02-24T13:31:04;11.70;1.00
429;DHT22;201;48.758;9.290;2023-02-24T13:33:36;11.50;1.00
429;DHT22;201;48.758;9.290;2023-02-24T13:36:15;11.40;1.00
429;DHT22;201;48.758;9.290;2023-02-24T13:38:49;11.40;1.00
429;DHT22;201;48.758;9.290;2023-02-24T13:46:28;11.00;1.00
429;DHT22;201;48.758;9.290;2023-02-24T13:49:03;11.00;1.00
429;DHT22;201;48.758;9.290;2023-02-24T13:51:49;11.10;1.00
429;DHT22;201;48.758;9.290;2023-02-24T13:54:42;11.10;1.00
429;DHT22;201;48.758;9.290;2023-02-24T14:00:41;11.20;1.00
429;DHT22;201;48.758;9.290;2023-02-24T14:03:19;11.20;1.00
429;DHT22;201;48.758;9.290;2023-02-24T14:05:46;11.30;1.00
429;DHT22;201;48.758;9.290;2023-02-24T14:08:32;11.50;1.00
429;DHT22;201;48.758;9.290;2023-02-24T14:10:59;11.60;1.00
429;DHT22;201;48.758;9.290;2023-02-24T14:13:30;11.80;1.00
429;DHT22;201;48.758;9.290;2023-02-24T14:16:00;11.70;1.00
429;DHT22;201;48.758;9.290;2023-02-24T14:18:29;11.80;1.00
429;DHT22;201;48.758;9.290;2023-02-24T14:20:56;11.50;1.00
429;DHT22;201;48.758;9.290;2023-02-24T14:26:11;11.00;1.00
429;DHT22;201;48.758;9.290;2023-02-24T14:28:38;10.90;1.00
429;DHT22;201;48.758;9.290;2023-02-24T14:31:10;10.50;1.10
429;DHT22;201;48.758;9.290;2023-02-24T14:33:38;10.40;2.60
429;DHT22;201;48.758;9.290;2023-02-24T14:36:19;10.30;2.60
429;DHT22;201;48.758;9.290;2023-02-24T14:38:45;10.20;3.40
429;DHT22;201;48.758;9.290;2023-02-24T14:41:22;9.90;4.30
429;DHT22;201;48.758;9.290;2023-02-24T14:43:49;9.90;5.30
429;DHT22;201;48.758;9.290;2023-02-24T14:46:14;9.80;5.80
429;DHT22;201;48.758;9.290;2023-02-24T14:48:42;9.70;5.70
429;DHT22;201;48.758;9.290;2023-02-24T14:51:18;9.70;6.20
429;DHT22;201;48.758;9.290;2023-02-24T14:53:51;9.60;6.70
429;DHT22;201;48.758;9.290;2023-02-24T14:56:20;9.50;7.00
429;DHT22;201;48.758;9.290;2023-02-24T14:58:59;9.50;6.90
429;DHT22;201;48.758;9.290;2023-02-24T15:01:31;9.60;7.10
429;DHT22;201;48.758;9.290;2023-02-24T15:04:09;9.50;6.60
429;DHT22;201;48.758;9.290;2023-02-24T15:06:35;9.50;7.20
429;DHT22;201;48.758;9.290;2023-02-24T15:09:26;9.70;7.10
429;DHT22;201;48.758;9.290;2023-02-24T15:11:54;9.60;7.30
429;DHT22;201;48.758;9.290;2023-02-24T15:16:48;9.50;7.50
429;DHT22;201;48.758;9.290;2023-02-24T15:19:37;9.40;8.10
429;DHT22;201;48.758;9.290;2023-02-24T15:22:16;9.50;8.30
429;DHT22;201;48.758;9.290;2023-02-24T15:24:42;9.40;8.60
429;DHT22;201;48.758;9.290;2023-02-24T15:29:41;9.50;8.10
429;DHT22;201;48.758;9.290;2023-02-24T15:32:18;9.40;8.40
429;DHT22;201;48.758;9.290;2023-02-24T15:34:46;9.30;8.70
429;DHT22;201;48.758;9.290;2023-02-24T15:37:23;9.20;9.80
429;DHT22;201;48.758;9.290;2023-02-24T15:39:52;9.10;9.70
429;DHT22;201;48.758;9.290;2023-02-24T15:42:26;9.20;9.80
429;DHT22;201;48.758;9.290;2023-02-24T15:44:54;9.20;9.80
429;DHT22;201;48.758;9.290;2023-02-24T15:47:23;9.30;9.30
429;DHT22;201;48.758;9.290;2023-02-24T15:49:48;9.30;9.10
429;DHT22;201;48.758;9.290;2023-02-24T15:52:16;9.30;8.70
429;DHT22;201;48.758;9.290;2023-02-24T15:54:44;9.20;8.60
429;DHT22;201;48.758;9.290;2023-02-24T15:57:11;9.10;8.80
429;DHT22;201;48.758;9.290;2023-02-24T15:59:40;9.00;9.60
429;DHT22;201;48.758;9.290;2023-02-24T16:02:12;9.00;9.60
429;DHT22;201;48.758;9.290;2023-02-24T16:04:38;8.90;9.60
429;DHT22;201;48.758;9.290;2023-02-24T16:07:05;8.80;10.50
429;DHT22;201;48.758;9.290;2023-02-24T16:09:36;8.70;11.00
429;DHT22;201;48.758;9.290;2023-02-24T16:12:07;8.60;11.70
429;DHT22;201;48.758;9.290;2023-02-24T16:14:34;8.50;12.70
429;DHT22;201;48.758;9.290;2023-02-24T16:17:02;8.50;13.10
429;DHT22;201;48.758;9.290;2023-02-24T16:19:30;8.40;13.70
429;DHT22;201;48.758;9.290;2023-02-24T16:21:55;8.40;13.70
429;DHT22;201;48.758;9.290;2023-02-24T16:24:21;8.40;14.30
429;DHT22;201;48.758;9.290;2023-02-24T16:26:46;8.30;14.60
429;DHT22;201;48.758;9.290;2023-02-24T16:29:14;8.30;14.80
429;DHT22;201;48.758;9.290;2023-02-24T16:31:39;8.30;15.60
429;DHT22;201;48.758;9.290;2023-02-24T16:34:06;8.20;15.60
429;DHT22;201;48.758;9.290;2023-02-24T16:36:32;8.20;15.40
429;DHT22;201;48.758;9.290;2023-02-24T16:38:58;8.20;15.70
429;DHT22;201;48.758;9.290;2023-02-24T16:41:23;8.20;16.10
429;DHT22;201;48.758;9.290;2023-02-24T16:43:49;8.20;16.00
429;DHT22;201;48.758;9.290;2023-02-24T16:46:17;8.20;15.60
429;DHT22;201;48.758;9.290;2023-02-24T16:48:45;8.20;16.00
429;DHT22;201;48.758;9.290;2023-02-24T16:51:12;8.10;16.20
429;DHT22;201;48.758;9.290;2023-02-24T16:53:38;8.10;16.20
429;DHT22;201;48.758;9.290;2023-02-24T16:56:04;8.10;16.40
429;DHT22;201;48.758;9.290;2023-02-24T16:58:30;8.10;16.60
429;DHT22;201;48.758;9.290;2023-02-24T17:00:57;8.10;16.60
429;DHT22;201;48.758;9.290;2023-02-24T17:03:27;8.10;17.20
429;DHT22;201;48.758;9.290;2023-02-24T17:05:54;8.10;17.50
429;DHT22;201;48.758;9.290;2023-02-24T17:08:20;8.00;17.40
429;DHT22;201;48.758;9.290;2023-02-24T17:10:46;8.00;17.50
429;DHT22;201;48.758;9.290;2023-02-24T17:13:15;8.10;17.50
429;DHT22;201;48.758;9.290;2023-02-24T17:15:41;8.00;17.40
429;DHT22;201;48.758;9.290;2023-02-24T17:18:07;8.10;17.50
429;DHT22;201;48.758;9.290;2023-02-24T17:20:34;8.10;17.50
429;DHT22;201;48.758;9.290;2023-02-24T17:23:01;8.10;17.50
429;DHT22;201;48.758;9.290;2023-02-24T17:25:28;8.10;17.50
429;DHT22;201;48.758;9.290;2023-02-24T17:27:55;8.10;17.50
429;DHT22;201;48.758;9.290;2023-02-24T17:30:24;8.10;17.50
429;DHT22;201;48.758;9.290;2023-02-24T17:32:50;8.10;17.50
429;DHT22;201;48.758;9.290;2023-02-24T17:35:16;8.10;17.50
429;DHT22;201;48.758;9.290;2023-02-24T17:37:41;8.00;17.50
429;DHT22;201;48.758;9.290;2023-02-24T17:40:07;8.00;17.50
429;DHT22;201;48.758;9.290;2023-02-24T17:42:35;8.00;17.50
429;DHT22;201;48.758;9.290;2023-02-24T17:45:00;8.00;18.00
429;DHT22;201;48.758;9.290;2023-02-24T17:47:26;8.00;17.40
429;DHT22;201;48.758;9.290;2023-02-24T17:49:52;8.00;17.50
429;DHT22;201;48.758;9.290;2023-02-24T17:52:17;8.00;17.40
429;DHT22;201;48.758;9.290;2023-02-24T17:54:43;8.00;17.50
429;DHT22;201;48.758;9.290;2023-02-24T17:57:08;7.90;17.40
429;DHT22;201;48.758;9.290;2023-02-24T17:59:35;7.90;17.40
429;DHT22;201;48.758;9.290;2023-02-24T18:02:01;7.90;17.40
429;DHT22;201;48.758;9.290;2023-02-24T18:04:28;7.90;17.40
429;DHT22;201;48.758;9.290;2023-02-24T18:06:53;7.90;17.40
429;DHT22;201;48.758;9.290;2023-02-24T18:09:19;7.90;17.30
429;DHT22;201;48.758;9.290;2023-02-24T18:11:44;7.90;16.40
429;DHT22;201;48.758;9.290;2023-02-24T18:14:12;7.90;16.70
429;DHT22;201;48.758;9.290;2023-02-24T18:16:37;7.80;15.30
429;DHT22;201;48.758;9.290;2023-02-24T18:19:03;7.80;15.30
429;DHT22;201;48.758;9.290;2023-02-24T18:21:29;7.80;15.90
429;DHT22;201;48.758;9.290;2023-02-24T18:23:54;7.80;15.90
429;DHT22;201;48.758;9.290;2023-02-24T18:26:20;7.80;14.80
429;DHT22;201;48.758;9.290;2023-02-24T18:28:46;7.80;14.80
429;DHT22;201;48.758;9.290;2023-02-24T18:31:14;7.80;15.20
429;DHT22;201;48.758;9.290;2023-02-24T18:33:40;7.80;14.80
429;DHT22;201;48.758;9.290;2023-02-24T18:36:06;7.80;15.00
429;DHT22;201;48.758;9.290;2023-02-24T18:38:32;7.80;14.50
429;DHT22;201;48.758;9.290;2023-02-24T18:41:00;7.80;14.50
429;DHT22;201;48.758;9.290;2023-02-24T18:43:26;7.70;13.80
429;DHT22;201;48.758;9.290;2023-02-24T18:45:59;7.60;14.10
429;DHT22;201;48.758;9.290;2023-02-24T18:48:26;7.70;14.30
429;DHT22;201;48.758;9.290;2023-02-24T18:50:53;7.60;13.80
429;DHT22;201;48.758;9.290;2023-02-24T18:53:19;7.60;14.60
429;DHT22;201;48.758;9.290;2023-02-24T18:55:45;7.60;14.50